sensor_id;sensor_type;location;lat;lon;timestamp;pressure;altitude;pressure_sealevel;temperature;humidity
64610;BME280;51019;46.090;6.350;2023-03-01T00:01:24;96866.59;;;0.47;94.48
64610;BME280;51019;46.090;6.350;2023-03-01T00:03:58;96875.50;;;0.59;94.78
64610;BME280;51019;46.090;6.350;2023-03-01T00:06:27;96874.72;;;0.57;94.82
64610;BME280;51019;46.090;6.350;2023-03-01T00:08:58;96862.91;;;0.53;94.54
64610;BME280;51019;46.090;6.350;2023-03-01T00:11:28;96873.22;;;0.70;94.12
64610;BME280;51019;46.090;6.350;2023-03-01T00:13:57;96864.50;;;0.55;94.42
64610;BME280;51019;46.090;6.350;2023-03-01T00:16:28;96872.91;;;0.59;95.64
64610;BME280;51019;46.090;6.350;2023-03-01T00:18:57;96846.28;;;0.41;95.78
64610;BME280;51019;46.090;6.350;2023-03-01T00:21:25;96850.44;;;0.44;96.17
64610;BME280;51019;46.090;6.350;2023-03-01T00:23:54;96851.81;;;0.51;96.46
64610;BME280;51019;46.090;6.350;2023-03-01T00:26:27;96870.41;;;0.57;96.84
64610;BME280;51019;46.090;6.350;2023-03-01T00:28:54;96872.00;;;0.60;95.49
64610;BME280;51019;46.090;6.350;2023-03-01T00:31:26;96865.19;;;0.59;94.21
64610;BME280;51019;46.090;6.350;2023-03-01T00:33:55;96867.91;;;0.56;95.00
64610;BME280;51019;46.090;6.350;2023-03-01T00:36:26;96849.31;;;0.49;95.41
64610;BME280;51019;46.090;6.350;2023-03-01T00:38:56;96868.38;;;0.64;96.03
64610;BME280;51019;46.090;6.350;2023-03-01T00:41:26;96858.13;;;0.45;96.82
64610;BME280;51019;46.090;6.350;2023-03-01T00:43:55;96867.16;;;0.54;96.34
64610;BME280;51019;46.090;6.350;2023-03-01T00:46:24;96865.41;;;0.54;96.61
64610;BME280;51019;46.090;6.350;2023-03-01T00:48:53;96864.66;;;0.52;96.49
64610;BME280;51019;46.090;6.350;2023-03-01T00:51:22;96864.56;;;0.54;97.68
64610;BME280;51019;46.090;6.350;2023-03-01T00:53:51;96865.56;;;0.51;97.91
64610;BME280;51019;46.090;6.350;2023-03-01T00:56:22;96857.94;;;0.48;97.64
64610;BME280;51019;46.090;6.350;2023-03-01T00:58:52;96863.09;;;0.48;97.25
64610;BME280;51019;46.090;6.350;2023-03-01T01:01:22;96857.94;;;0.48;97.54
64610;BME280;51019;46.090;6.350;2023-03-01T01:03:53;96867.28;;;0.51;97.42
64610;BME280;51019;46.090;6.350;2023-03-01T01:06:25;96869.09;;;0.49;97.75
64610;BME280;51019;46.090;6.350;2023-03-01T01:08:54;96864.56;;;0.54;97.40
64610;BME280;51019;46.090;6.350;2023-03-01T01:11:23;96861.03;;;0.56;97.43
64610;BME280;51019;46.090;6.350;2023-03-01T01:13:53;96868.53;;;0.61;97.13
64610;BME280;51019;46.090;6.350;2023-03-01T01:16:21;96857.59;;;0.56;96.68
64610;BME280;51019;46.090;6.350;2023-03-01T01:18:51;96851.69;;;0.54;96.04
64610;BME280;51019;46.090;6.350;2023-03-01T01:21:23;96820.88;;;0.33;96.01
64610;BME280;51019;46.090;6.350;2023-03-01T01:23:53;96856.06;;;0.52;97.35
64610;BME280;51019;46.090;6.350;2023-03-01T01:26:22;96850.84;;;0.53;97.53
64610;BME280;51019;46.090;6.350;2023-03-01T01:28:53;96850.97;;;0.50;98.19
64610;BME280;51019;46.090;6.350;2023-03-01T01:31:22;96847.19;;;0.57;96.73
64610;BME280;51019;46.090;6.350;2023-03-01T01:33:50;96845.38;;;0.59;96.00
64610;BME280;51019;46.090;6.350;2023-03-01T01:36:17;96847.56;;;0.50;96.55
64610;BME280;51019;46.090;6.350;2023-03-01T01:38:46;96839.13;;;0.46;98.05
64610;BME280;51019;46.090;6.350;2023-03-01T01:41:14;96836.66;;;0.45;98.74
64610;BME280;51019;46.090;6.350;2023-03-01T01:43:48;96836.34;;;0.51;96.97
64610;BME280;51019;46.090;6.350;2023-03-01T01:46:26;96812.44;;;0.47;95.73
64610;BME280;51019;46.090;6.350;2023-03-01T01:48:58;96817.97;;;0.40;97.42
64610;BME280;51019;46.090;6.350;2023-03-01T01:51:30;96819.84;;;0.36;98.55
64610;BME280;51019;46.090;6.350;2023-03-01T01:54:08;96817.97;;;0.40;98.74
64610;BME280;51019;46.090;6.350;2023-03-01T01:56:37;96820.94;;;0.49;99.19
64610;BME280;51019;46.090;6.350;2023-03-01T01:59:08;96816.22;;;0.40;99.35
64610;BME280;51019;46.090;6.350;2023-03-01T02:01:41;96823.75;;;0.45;99.58
64610;BME280;51019;46.090;6.350;2023-03-01T02:04:08;96809.47;;;0.38;100.00
64610;BME280;51019;46.090;6.350;2023-03-01T02:06:39;96809.25;;;0.42;100.00
64610;BME280;51019;46.090;6.350;2023-03-01T02:09:11;96784.34;;;0.24;100.00
64610;BME280;51019;46.090;6.350;2023-03-01T02:11:40;96772.16;;;0.27;99.85
64610;BME280;51019;46.090;6.350;2023-03-01T02:14:07;96803.88;;;0.47;98.13
64610;BME280;51019;46.090;6.350;2023-03-01T02:16:35;96769.38;;;0.32;98.75
64610;BME280;51019;46.090;6.350;2023-03-01T02:19:05;96786.13;;;0.41;99.46
64610;BME280;51019;46.090;6.350;2023-03-01T02:21:41;96788.50;;;0.62;97.07
64610;BME280;51019;46.090;6.350;2023-03-01T02:24:20;96783.47;;;0.59;96.37
64610;BME280;51019;46.090;6.350;2023-03-01T02:26:55;96776.06;;;0.53;97.18
64610;BME280;51019;46.090;6.350;2023-03-01T02:29:27;96766.41;;;0.57;96.27
64610;BME280;51019;46.090;6.350;2023-03-01T02:31:58;96774.91;;;0.59;97.27
64610;BME280;51019;46.090;6.350;2023-03-01T02:34:26;96762.53;;;0.48;96.64
64610;BME280;51019;46.090;6.350;2023-03-01T02:36:58;96751.44;;;0.46;97.42
64610;BME280;51019;46.090;6.350;2023-03-01T02:39:33;96733.09;;;0.35;95.94
64610;BME280;51019;46.090;6.350;2023-03-01T02:42:02;96752.22;;;0.48;96.63
64610;BME280;51019;46.090;6.350;2023-03-01T02:44:33;96742.50;;;0.36;96.84
64610;BME280;51019;46.090;6.350;2023-03-01T02:47:02;96750.63;;;0.46;97.09
64610;BME280;51019;46.090;6.350;2023-03-01T02:49:35;96739.03;;;0.37;96.98
64610;BME280;51019;46.090;6.350;2023-03-01T02:52:21;96745.16;;;0.34;97.17
64610;BME280;51019;46.090;6.350;2023-03-01T02:54:55;96744.81;;;0.42;96.97
64610;BME280;51019;46.090;6.350;2023-03-01T02:57:27;96735.53;;;0.38;97.28
64610;BME280;51019;46.090;6.350;2023-03-01T03:00:02;96737.81;;;0.44;96.91
64610;BME280;51019;46.090;6.350;2023-03-01T03:02:34;96732.25;;;0.34;98.94
64610;BME280;51019;46.090;6.350;2023-03-01T03:05:08;96721.22;;;0.32;98.10
64610;BME280;51019;46.090;6.350;2023-03-01T03:07:39;96722.97;;;0.32;98.94
64610;BME280;51019;46.090;6.350;2023-03-01T03:10:09;96707.91;;;0.23;99.62
64610;BME280;51019;46.090;6.350;2023-03-01T03:12:39;96723.41;;;0.40;98.91
64610;BME280;51019;46.090;6.350;2023-03-01T03:15:10;96721.94;;;0.34;98.83
64610;BME280;51019;46.090;6.350;2023-03-01T03:17:39;96691.94;;;0.33;98.50
64610;BME280;51019;46.090;6.350;2023-03-01T03:20:18;96726.13;;;0.37;100.00
64610;BME280;51019;46.090;6.350;2023-03-01T03:22:47;96714.69;;;0.43;100.00
64610;BME280;51019;46.090;6.350;2023-03-01T03:25:18;96708.09;;;0.37;97.71
64610;BME280;51019;46.090;6.350;2023-03-01T03:27:47;96720.13;;;0.36;98.76
64610;BME280;51019;46.090;6.350;2023-03-01T03:30:24;96716.13;;;0.48;98.18
64610;BME280;51019;46.090;6.350;2023-03-01T03:32:53;96694.44;;;0.35;98.44
64610;BME280;51019;46.090;6.350;2023-03-01T03:35:23;96710.19;;;0.46;98.42
64610;BME280;51019;46.090;6.350;2023-03-01T03:37:57;96692.16;;;0.29;97.62
64610;BME280;51019;46.090;6.350;2023-03-01T03:40:42;96680.66;;;0.19;96.27
64610;BME280;51019;46.090;6.350;2023-03-01T03:43:12;96706.47;;;0.34;97.18
64610;BME280;51019;46.090;6.350;2023-03-01T03:45:44;96708.84;;;0.39;96.70
64610;BME280;51019;46.090;6.350;2023-03-01T03:48:11;96717.63;;;0.35;96.42
64610;BME280;51019;46.090;6.350;2023-03-01T03:50:40;96670.47;;;0.16;95.27
64610;BME280;51019;46.090;6.350;2023-03-01T03:53:10;96709.00;;;0.36;95.58
64610;BME280;51019;46.090;6.350;2023-03-01T03:55:39;96697.78;;;0.37;95.97
64610;BME280;51019;46.090;6.350;2023-03-01T03:58:08;96694.91;;;0.43;95.16
64610;BME280;51019;46.090;6.350;2023-03-01T04:00:37;96672.38;;;0.29;96.33
64610;BME280;51019;46.090;6.350;2023-03-01T04:03:09;96694.72;;;0.46;94.83
64610;BME280;51019;46.090;6.350;2023-03-01T04:05:37;96694.13;;;0.41;95.24
64610;BME280;51019;46.090;6.350;2023-03-01T04:08:05;96680.31;;;0.25;96.27
64610;BME280;51019;46.090;6.350;2023-03-01T04:10:35;96665.25;;;0.17;96.77
64610;BME280;51019;46.090;6.350;2023-03-01T04:13:05;96673.22;;;0.30;96.12
64610;BME280;51019;46.090;6.350;2023-03-01T04:15:33;96692.31;;;0.43;96.13
64610;BME280;51019;46.090;6.350;2023-03-01T04:18:01;96683.81;;;0.41;96.17
64610;BME280;51019;46.090;6.350;2023-03-01T04:20:42;96670.31;;;0.36;96.50
64610;BME280;51019;46.090;6.350;2023-03-01T04:23:13;96674.41;;;0.40;96.65
64610;BME280;51019;46.090;6.350;2023-03-01T04:25:44;96666.69;;;0.40;94.83
64610;BME280;51019;46.090;6.350;2023-03-01T04:28:18;96667.44;;;0.42;95.01
64610;BME280;51019;46.090;6.350;2023-03-01T04:30:46;96648.13;;;0.33;94.83
64610;BME280;51019;46.090;6.350;2023-03-01T04:33:13;96671.91;;;0.39;96.35
64610;BME280;51019;46.090;6.350;2023-03-01T04:35:42;96674.56;;;0.37;96.33
64610;BME280;51019;46.090;6.350;2023-03-01T04:38:10;96662.91;;;0.30;96.87
64610;BME280;51019;46.090;6.350;2023-03-01T04:40:37;96669.41;;;0.37;96.31
64610;BME280;51019;46.090;6.350;2023-03-01T04:43:04;96666.75;;;0.39;94.99
64610;BME280;51019;46.090;6.350;2023-03-01T04:45:32;96675.75;;;0.47;93.96
64610;BME280;51019;46.090;6.350;2023-03-01T04:48:02;96674.50;;;0.39;94.71
64610;BME280;51019;46.090;6.350;2023-03-01T04:50:29;96666.75;;;0.39;94.42
64610;BME280;51019;46.090;6.350;2023-03-01T04:53:00;96677.50;;;0.47;94.35
64610;BME280;51019;46.090;6.350;2023-03-01T04:55:30;96670.78;;;0.44;95.44
64610;BME280;51019;46.090;6.350;2023-03-01T04:57:57;96650.09;;;0.28;95.21
64610;BME280;51019;46.090;6.350;2023-03-01T05:00:26;96654.41;;;0.28;94.19
64610;BME280;51019;46.090;6.350;2023-03-01T05:02:59;96673.09;;;0.49;94.35
64610;BME280;51019;46.090;6.350;2023-03-01T05:05:34;96667.28;;;0.45;95.20
64610;BME280;51019;46.090;6.350;2023-03-01T05:08:06;96668.44;;;0.40;95.53
64610;BME280;51019;46.090;6.350;2023-03-01T05:10:35;96670.78;;;0.44;95.53
64610;BME280;51019;46.090;6.350;2023-03-01T05:13:04;96670.38;;;0.52;94.29
64610;BME280;51019;46.090;6.350;2023-03-01T05:15:32;96670.47;;;0.50;95.58
64610;BME280;51019;46.090;6.350;2023-03-01T05:18:02;96663.97;;;0.43;95.37
64610;BME280;51019;46.090;6.350;2023-03-01T05:20:38;96657.13;;;0.42;94.29
64610;BME280;51019;46.090;6.350;2023-03-01T05:23:07;96648.00;;;0.35;94.50
64610;BME280;51019;46.090;6.350;2023-03-01T05:25:35;96658.88;;;0.42;95.88
64610;BME280;51019;46.090;6.350;2023-03-01T05:28:06;96657.13;;;0.42;95.18
64610;BME280;51019;46.090;6.350;2023-03-01T05:30:35;96654.84;;;0.36;95.92
64610;BME280;51019;46.090;6.350;2023-03-01T05:33:05;96641.88;;;0.38;96.32
64610;BME280;51019;46.090;6.350;2023-03-01T05:35:39;96661.66;;;0.37;97.12
64610;BME280;51019;46.090;6.350;2023-03-01T05:38:09;96662.56;;;0.36;98.54
64610;BME280;51019;46.090;6.350;2023-03-01T05:40:39;96660.53;;;0.43;97.52
64610;BME280;51019;46.090;6.350;2023-03-01T05:43:07;96661.13;;;0.48;97.57
64610;BME280;51019;46.090;6.350;2023-03-01T05:45:36;96630.69;;;0.21;97.04
64610;BME280;51019;46.090;6.350;2023-03-01T05:48:04;96656.66;;;0.34;97.25
64610;BME280;51019;46.090;6.350;2023-03-01T05:50:33;96657.59;;;0.33;99.09
64610;BME280;51019;46.090;6.350;2023-03-01T05:53:03;96658.56;;;0.30;98.51
64610;BME280;51019;46.090;6.350;2023-03-01T05:55:36;96661.09;;;0.32;98.83
64610;BME280;51019;46.090;6.350;2023-03-01T05:58:09;96648.78;;;0.37;97.92
64610;BME280;51019;46.090;6.350;2023-03-01T06:00:37;96653.47;;;0.46;96.88
64610;BME280;51019;46.090;6.350;2023-03-01T06:03:05;96647.88;;;0.38;97.84
64610;BME280;51019;46.090;6.350;2023-03-01T06:05:36;96656.03;;;0.46;97.84
64610;BME280;51019;46.090;6.350;2023-03-01T06:08:04;96660.63;;;0.41;98.42
64610;BME280;51019;46.090;6.350;2023-03-01T06:10:32;96652.34;;;0.34;98.81
64610;BME280;51019;46.090;6.350;2023-03-01T06:13:01;96655.25;;;0.28;98.97
64610;BME280;51019;46.090;6.350;2023-03-01T06:15:29;96653.34;;;0.32;98.01
64610;BME280;51019;46.090;6.350;2023-03-01T06:17:57;96655.25;;;0.28;98.05
64610;BME280;51019;46.090;6.350;2023-03-01T06:20:26;96639.09;;;0.25;97.82
64610;BME280;51019;46.090;6.350;2023-03-01T06:22:54;96660.63;;;0.41;97.22
64610;BME280;51019;46.090;6.350;2023-03-01T06:25:23;96652.59;;;0.30;96.79
64610;BME280;51019;46.090;6.350;2023-03-01T06:27:51;96659.34;;;0.32;97.52
64610;BME280;51019;46.090;6.350;2023-03-01T06:30:22;96659.25;;;0.34;97.64
64610;BME280;51019;46.090;6.350;2023-03-01T06:32:54;96645.97;;;0.24;97.21
64610;BME280;51019;46.090;6.350;2023-03-01T06:35:27;96668.50;;;0.38;96.82
64610;BME280;51019;46.090;6.350;2023-03-01T06:37:57;96647.91;;;0.21;97.64
64610;BME280;51019;46.090;6.350;2023-03-01T06:40:25;96671.69;;;0.43;96.84
64610;BME280;51019;46.090;6.350;2023-03-01T06:42:55;96666.59;;;0.42;97.15
64610;BME280;51019;46.090;6.350;2023-03-01T06:45:25;96669.41;;;0.37;96.57
64610;BME280;51019;46.090;6.350;2023-03-01T06:48:01;96663.19;;;0.24;96.60
64610;BME280;51019;46.090;6.350;2023-03-01T06:50:29;96644.13;;;0.11;96.70
64610;BME280;51019;46.090;6.350;2023-03-01T06:52:58;96663.88;;;0.27;96.84
64610;BME280;51019;46.090;6.350;2023-03-01T06:55:26;96671.06;;;0.38;97.80
64610;BME280;51019;46.090;6.350;2023-03-01T06:57:54;96668.56;;;0.36;97.19
64610;BME280;51019;46.090;6.350;2023-03-01T07:00:26;96669.25;;;0.40;96.66
64610;BME280;51019;46.090;6.350;2023-03-01T07:02:54;96672.59;;;0.42;97.88
64610;BME280;51019;46.090;6.350;2023-03-01T07:05:22;96654.41;;;0.28;97.32
64610;BME280;51019;46.090;6.350;2023-03-01T07:07:50;96666.69;;;0.40;96.53
64610;BME280;51019;46.090;6.350;2023-03-01T07:10:17;96668.34;;;0.41;97.96
64610;BME280;51019;46.090;6.350;2023-03-01T07:12:46;96660.06;;;0.34;98.48
64610;BME280;51019;46.090;6.350;2023-03-01T07:15:14;96655.47;;;0.41;98.52
64610;BME280;51019;46.090;6.350;2023-03-01T07:17:44;96665.44;;;0.47;97.83
64610;BME280;51019;46.090;6.350;2023-03-01T07:20:13;96667.59;;;0.39;98.14
64610;BME280;51019;46.090;6.350;2023-03-01T07:22:41;96659.31;;;0.50;97.47
64610;BME280;51019;46.090;6.350;2023-03-01T07:25:10;96660.47;;;0.44;97.28
64610;BME280;51019;46.090;6.350;2023-03-01T07:27:38;96629.53;;;0.27;96.73
64610;BME280;51019;46.090;6.350;2023-03-01T07:30:08;96653.88;;;0.39;98.44
64610;BME280;51019;46.090;6.350;2023-03-01T07:32:36;96629.16;;;0.17;98.79
64610;BME280;51019;46.090;6.350;2023-03-01T07:35:06;96653.47;;;0.46;97.08
64610;BME280;51019;46.090;6.350;2023-03-01T07:37:37;96645.16;;;0.41;97.60
64610;BME280;51019;46.090;6.350;2023-03-01T07:40:05;96641.50;;;0.45;96.94
64610;BME280;51019;46.090;6.350;2023-03-01T07:42:33;96640.28;;;0.35;98.39
64610;BME280;51019;46.090;6.350;2023-03-01T07:45:02;96639.72;;;0.46;97.67
64610;BME280;51019;46.090;6.350;2023-03-01T07:47:32;96633.59;;;0.48;97.48
64610;BME280;51019;46.090;6.350;2023-03-01T07:50:02;96639.94;;;0.58;97.07
64610;BME280;51019;46.090;6.350;2023-03-01T07:52:31;96629.56;;;0.60;96.99
64610;BME280;51019;46.090;6.350;2023-03-01T07:55:00;96629.00;;;0.70;96.15
64610;BME280;51019;46.090;6.350;2023-03-01T07:57:28;96631.25;;;0.77;94.14
64610;BME280;51019;46.090;6.350;2023-03-01T07:59:55;96638.97;;;0.61;96.28
64610;BME280;51019;46.090;6.350;2023-03-01T08:02:23;96611.66;;;0.57;95.37
64610;BME280;51019;46.090;6.350;2023-03-01T08:04:51;96627.84;;;0.76;96.15
64610;BME280;51019;46.090;6.350;2023-03-01T08:07:18;96631.84;;;0.82;95.18
64610;BME280;51019;46.090;6.350;2023-03-01T08:09:48;96622.88;;;0.89;94.29
64610;BME280;51019;46.090;6.350;2023-03-01T08:12:15;96624.09;;;0.82;95.07
64610;BME280;51019;46.090;6.350;2023-03-01T08:14:43;96630.94;;;0.83;95.02
64610;BME280;51019;46.090;6.350;2023-03-01T08:17:13;96631.69;;;0.85;96.04
64610;BME280;51019;46.090;6.350;2023-03-01T08:19:42;96625.13;;;0.95;92.89
64610;BME280;51019;46.090;6.350;2023-03-01T08:22:10;96619.47;;;0.88;92.14
64610;BME280;51019;46.090;6.350;2023-03-01T08:24:39;96641.34;;;0.97;91.13
64610;BME280;51019;46.090;6.350;2023-03-01T08:27:09;96630.13;;;0.98;90.49
64610;BME280;51019;46.090;6.350;2023-03-01T08:29:39;96632.13;;;1.08;90.42
64610;BME280;51019;46.090;6.350;2023-03-01T08:32:07;96630.94;;;1.14;89.95
64610;BME280;51019;46.090;6.350;2023-03-01T08:34:35;96602.16;;;0.90;91.06
64610;BME280;51019;46.090;6.350;2023-03-01T08:37:03;96630.72;;;1.19;89.48
64610;BME280;51019;46.090;6.350;2023-03-01T08:39:32;96625.16;;;1.11;91.23
64610;BME280;51019;46.090;6.350;2023-03-01T08:42:00;96623.47;;;1.25;92.31
64610;BME280;51019;46.090;6.350;2023-03-01T08:44:31;96601.81;;;0.96;88.75
64610;BME280;51019;46.090;6.350;2023-03-01T08:46:59;96631.56;;;1.19;89.05
64610;BME280;51019;46.090;6.350;2023-03-01T08:49:27;96628.81;;;1.22;89.58
64610;BME280;51019;46.090;6.350;2023-03-01T08:51:55;96615.31;;;1.17;87.89
64610;BME280;51019;46.090;6.350;2023-03-01T08:54:22;96608.13;;;1.38;87.54
64610;BME280;51019;46.090;6.350;2023-03-01T08:56:50;96631.63;;;1.33;91.46
64610;BME280;51019;46.090;6.350;2023-03-01T08:59:18;96622.78;;;1.37;91.95
64610;BME280;51019;46.090;6.350;2023-03-01T09:01:48;96624.31;;;1.10;93.54
64610;BME280;51019;46.090;6.350;2023-03-01T09:04:16;96622.63;;;1.09;92.59
64610;BME280;51019;46.090;6.350;2023-03-01T09:06:44;96625.97;;;1.11;92.78
64610;BME280;51019;46.090;6.350;2023-03-01T09:09:13;96614.31;;;1.20;93.19
64610;BME280;51019;46.090;6.350;2023-03-01T09:11:42;96602.72;;;1.27;92.29
64610;BME280;51019;46.090;6.350;2023-03-01T09:14:11;96619.47;;;1.35;89.69
64610;BME280;51019;46.090;6.350;2023-03-01T09:16:39;96621.31;;;1.33;88.89
64610;BME280;51019;46.090;6.350;2023-03-01T09:19:08;96613.88;;;1.43;90.04
64610;BME280;51019;46.090;6.350;2023-03-01T09:21:37;96610.63;;;1.55;90.12
64610;BME280;51019;46.090;6.350;2023-03-01T09:24:06;96614.03;;;1.56;90.10
64610;BME280;51019;46.090;6.350;2023-03-01T09:26:33;96593.22;;;1.43;89.68
64610;BME280;51019;46.090;6.350;2023-03-01T09:29:01;96608.63;;;1.44;90.47
64610;BME280;51019;46.090;6.350;2023-03-01T09:31:29;96614.97;;;1.55;90.47
64610;BME280;51019;46.090;6.350;2023-03-01T09:33:56;96608.88;;;1.56;89.64
64610;BME280;51019;46.090;6.350;2023-03-01T09:36:26;96606.53;;;1.51;88.83
64610;BME280;51019;46.090;6.350;2023-03-01T09:38:54;96589.38;;;1.50;88.92
64610;BME280;51019;46.090;6.350;2023-03-01T09:41:36;96601.44;;;1.50;89.46
64610;BME280;51019;46.090;6.350;2023-03-01T09:44:11;96600.28;;;1.55;89.02
64610;BME280;51019;46.090;6.350;2023-03-01T09:46:43;96607.75;;;1.60;88.53
64610;BME280;51019;46.090;6.350;2023-03-01T09:49:14;96613.84;;;1.59;89.45
64610;BME280;51019;46.090;6.350;2023-03-01T09:51:55;96615.56;;;1.74;87.73
64610;BME280;51019;46.090;6.350;2023-03-01T09:54:25;96612.06;;;1.75;88.42
64610;BME280;51019;46.090;6.350;2023-03-01T09:57:07;96610.41;;;1.74;88.53
64610;BME280;51019;46.090;6.350;2023-03-01T09:59:54;96603.94;;;1.67;88.29
64610;BME280;51019;46.090;6.350;2023-03-01T10:02:30;96613.06;;;1.72;88.51
64610;BME280;51019;46.090;6.350;2023-03-01T10:05:12;96593.94;;;1.61;88.37
64610;BME280;51019;46.090;6.350;2023-03-01T10:07:48;96603.78;;;1.84;88.54
64610;BME280;51019;46.090;6.350;2023-03-01T10:10:26;96586.53;;;1.85;87.70
64610;BME280;51019;46.090;6.350;2023-03-01T10:12:57;96583.56;;;1.76;87.24
64610;BME280;51019;46.090;6.350;2023-03-01T10:15:35;96592.72;;;1.82;86.92
64610;BME280;51019;46.090;6.350;2023-03-01T10:18:12;96587.91;;;1.76;87.08
64610;BME280;51019;46.090;6.350;2023-03-01T10:20:46;96584.97;;;1.82;87.71
64610;BME280;51019;46.090;6.350;2023-03-01T10:23:17;96592.28;;;1.90;86.15
64610;BME280;51019;46.090;6.350;2023-03-01T10:25:56;96586.00;;;1.94;86.97
64610;BME280;51019;46.090;6.350;2023-03-01T10:28:35;96588.72;;;2.06;87.15
64610;BME280;51019;46.090;6.350;2023-03-01T10:31:11;96579.91;;;1.95;86.94
64610;BME280;51019;46.090;6.350;2023-03-01T10:33:42;96562.91;;;1.76;86.70
64610;BME280;51019;46.090;6.350;2023-03-01T10:36:10;96579.78;;;1.82;86.65
64610;BME280;51019;46.090;6.350;2023-03-01T10:38:51;96575.88;;;1.91;86.23
64610;BME280;51019;46.090;6.350;2023-03-01T10:41:20;96577.63;;;1.90;86.50
64610;BME280;51019;46.090;6.350;2023-03-01T10:43:52;96572.09;;;1.96;86.84
64610;BME280;51019;46.090;6.350;2023-03-01T10:46:28;96580.22;;;2.04;85.73
64610;BME280;51019;46.090;6.350;2023-03-01T10:49:12;96572.13;;;2.10;85.95
64610;BME280;51019;46.090;6.350;2023-03-01T10:51:42;96581.63;;;2.10;84.95
64610;BME280;51019;46.090;6.350;2023-03-01T10:54:20;96577.38;;;2.09;85.35
64610;BME280;51019;46.090;6.350;2023-03-01T10:56:50;96587.75;;;2.23;85.94
64610;BME280;51019;46.090;6.350;2023-03-01T10:59:26;96580.03;;;2.07;86.29
64610;BME280;51019;46.090;6.350;2023-03-01T11:02:15;96544.03;;;1.90;85.39
64610;BME280;51019;46.090;6.350;2023-03-01T11:04:58;96577.13;;;2.13;83.84
64610;BME280;51019;46.090;6.350;2023-03-01T11:07:26;96568.81;;;2.23;83.86
64610;BME280;51019;46.090;6.350;2023-03-01T11:09:55;96570.09;;;2.30;83.69
64610;BME280;51019;46.090;6.350;2023-03-01T11:12:24;96568.63;;;2.40;83.90
64610;BME280;51019;46.090;6.350;2023-03-01T11:14:55;96549.31;;;2.31;83.72
64610;BME280;51019;46.090;6.350;2023-03-01T11:17:25;96569.09;;;2.46;82.54
64610;BME280;51019;46.090;6.350;2023-03-01T11:20:02;96566.13;;;2.38;83.99
64610;BME280;51019;46.090;6.350;2023-03-01T11:22:33;96565.66;;;2.32;84.37
64610;BME280;51019;46.090;6.350;2023-03-01T11:25:05;96560.03;;;2.39;84.10
64610;BME280;51019;46.090;6.350;2023-03-01T11:27:36;96537.59;;;2.40;83.52
64610;BME280;51019;46.090;6.350;2023-03-01T11:30:12;96532.22;;;2.43;83.98
64610;BME280;51019;46.090;6.350;2023-03-01T11:32:44;96529.16;;;2.50;82.46
64610;BME280;51019;46.090;6.350;2023-03-01T11:35:16;96532.59;;;2.51;82.77
64610;BME280;51019;46.090;6.350;2023-03-01T11:37:56;96531.41;;;2.57;83.82
64610;BME280;51019;46.090;6.350;2023-03-01T11:40:32;96531.66;;;2.52;82.80
64610;BME280;51019;46.090;6.350;2023-03-01T11:43:06;96530.28;;;2.61;83.01
64610;BME280;51019;46.090;6.350;2023-03-01T11:45:52;96529.06;;;2.80;82.73
64610;BME280;51019;46.090;6.350;2023-03-01T11:48:35;96526.41;;;2.53;83.19
64610;BME280;51019;46.090;6.350;2023-03-01T11:51:09;96515.22;;;2.53;83.52
64610;BME280;51019;46.090;6.350;2023-03-01T11:54:01;96516.41;;;2.62;81.87
64610;BME280;51019;46.090;6.350;2023-03-01T11:56:38;96512.31;;;2.72;82.08
64610;BME280;51019;46.090;6.350;2023-03-01T11:59:32;96508.38;;;2.66;82.13
64610;BME280;51019;46.090;6.350;2023-03-01T12:02:28;96504.88;;;2.67;82.50
64610;BME280;51019;46.090;6.350;2023-03-01T12:05:23;96497.00;;;2.69;80.95
64610;BME280;51019;46.090;6.350;2023-03-01T12:07:56;96499.75;;;2.80;80.83
64610;BME280;51019;46.090;6.350;2023-03-01T12:10:31;96504.00;;;2.81;81.24
64610;BME280;51019;46.090;6.350;2023-03-01T12:13:23;96504.94;;;2.80;83.38
64610;BME280;51019;46.090;6.350;2023-03-01T12:16:17;96493.53;;;2.82;82.62
64610;BME280;51019;46.090;6.350;2023-03-01T12:19:05;96489.78;;;2.74;82.00
64610;BME280;51019;46.090;6.350;2023-03-01T12:21:45;96492.75;;;2.95;81.46
64610;BME280;51019;46.090;6.350;2023-03-01T12:24:46;96500.19;;;2.86;81.83
64610;BME280;51019;46.090;6.350;2023-03-01T12:27:30;96489.25;;;2.96;81.96
64610;BME280;51019;46.090;6.350;2023-03-01T12:30:17;96487.59;;;2.95;81.38
64610;BME280;51019;46.090;6.350;2023-03-01T12:33:00;96492.66;;;2.69;81.20
64610;BME280;51019;46.090;6.350;2023-03-01T12:35:50;96477.97;;;2.70;81.46
64610;BME280;51019;46.090;6.350;2023-03-01T12:38:31;96479.81;;;2.68;81.29
64610;BME280;51019;46.090;6.350;2023-03-01T12:41:13;96475.56;;;2.67;81.35
64610;BME280;51019;46.090;6.350;2023-03-01T12:43:55;96471.41;;;2.64;82.09
64610;BME280;51019;46.090;6.350;2023-03-01T12:46:35;96474.81;;;2.79;82.12
64610;BME280;51019;46.090;6.350;2023-03-01T12:49:09;96446.00;;;2.71;80.52
64610;BME280;51019;46.090;6.350;2023-03-01T12:51:43;96457.66;;;2.90;81.58
64610;BME280;51019;46.090;6.350;2023-03-01T12:54:16;96466.31;;;3.04;82.14
64610;BME280;51019;46.090;6.350;2023-03-01T12:56:46;96451.06;;;2.99;81.10
64610;BME280;51019;46.090;6.350;2023-03-01T12:59:21;96450.41;;;2.96;81.17
64610;BME280;51019;46.090;6.350;2023-03-01T13:01:57;96456.75;;;2.91;80.85
64610;BME280;51019;46.090;6.350;2023-03-01T13:04:57;96451.69;;;2.76;80.63
64610;BME280;51019;46.090;6.350;2023-03-01T13:07:30;96459.28;;;2.79;80.37
64610;BME280;51019;46.090;6.350;2023-03-01T13:10:16;96458.19;;;2.96;80.57
64610;BME280;51019;46.090;6.350;2023-03-01T13:12:51;96461.53;;;2.83;81.10
64610;BME280;51019;46.090;6.350;2023-03-01T13:15:30;96453.91;;;2.82;80.09
64610;BME280;51019;46.090;6.350;2023-03-01T13:18:01;96459.22;;;2.93;80.70
64610;BME280;51019;46.090;6.350;2023-03-01T13:20:34;96458.38;;;3.19;80.38
64610;BME280;51019;46.090;6.350;2023-03-01T13:23:22;96450.19;;;3.13;79.91
64610;BME280;51019;46.090;6.350;2023-03-01T13:29:03;96450.41;;;3.22;79.36
64610;BME280;51019;46.090;6.350;2023-03-01T13:31:58;96442.31;;;3.14;78.63
64610;BME280;51019;46.090;6.350;2023-03-01T13:34:52;96448.16;;;3.43;79.88
64610;BME280;51019;46.090;6.350;2023-03-01T13:37:37;96452.13;;;3.49;78.52
64610;BME280;51019;46.090;6.350;2023-03-01T13:43:30;96450.84;;;3.42;77.24